Time;durP1;ratioP1;P1;durP2;ratioP2;P2;SDS_P1;SDS_P2;PMS_P1;PMS_P2;Temp;Humidity;BMP_temperature;BMP_pressure;BME280_temperature;BME280_humidity;BME280_pressure;Samples;Min_cycle;Max_cycle;Signal;HPM_P1;HPM_P2
2023/07/01 00:01:50;;;;;;;12.20;11.17;;;;;;;16.19;90.74;92555.25;5010191;28;20179;-82
2023/07/01 00:04:15;;;;;;;11.87;11.07;;;;;;;16.11;90.39;92542.09;5009415;28;20239;-83
2023/07/01 00:06:43;;;;;;;10.93;10.23;;;;;;;16.08;90.26;92544.25;5009914;28;20269;-84
2023/07/01 00:09:10;;;;;;;11.87;11.17;;;;;;;16.08;91.91;92542.72;5021675;28;20215;-83
2023/07/01 00:11:38;;;;;;;12.77;11.83;;;;;;;15.83;92.02;92539.03;5010022;28;20227;-84
2023/07/01 00:14:04;;;;;;;15.17;11.10;;;;;;;15.86;91.72;92530.50;5011637;28;20658;-86
2023/07/01 00:16:30;;;;;;;12.33;11.23;;;;;;;16.00;91.57;92541.63;5018486;28;20220;-84
2023/07/01 00:18:55;;;;;;;13.43;10.57;;;;;;;16.02;90.75;92540.25;5010307;28;20187;-84
2023/07/01 00:21:20;;;;;;;12.73;11.83;;;;;;;15.96;91.00;92538.88;5009871;28;20219;-84
2023/07/01 00:23:46;;;;;;;11.80;10.83;;;;;;;15.91;90.82;92525.09;5009517;28;20175;-84
2023/07/01 00:26:11;;;;;;;12.63;11.60;;;;;;;16.04;91.91;92534.69;5009379;28;20810;-81
2023/07/01 00:28:37;;;;;;;12.77;11.77;;;;;;;15.94;91.79;92527.09;5012721;28;20191;-84
2023/07/01 00:31:02;;;;;;;12.17;11.37;;;;;;;15.99;91.40;92529.56;5011666;28;20211;-83
2023/07/01 00:33:27;;;;;;;12.60;11.77;;;;;;;15.85;91.34;92519.22;5010668;28;20179;-83
2023/07/01 00:35:53;;;;;;;11.90;11.13;;;;;;;15.71;92.11;92515.22;5018015;28;20219;-83
2023/07/01 00:38:18;;;;;;;13.00;11.90;;;;;;;15.86;90.92;92525.25;5009571;28;20200;-84
2023/07/01 00:40:44;;;;;;;11.63;10.83;;;;;;;15.80;93.15;92527.28;5020546;28;20219;-85
2023/07/01 00:43:10;;;;;;;12.47;11.57;;;;;;;15.76;92.66;92517.69;5018190;28;20211;-82
2023/07/01 00:45:35;;;;;;;12.40;11.40;;;;;;;15.81;92.48;92509.63;5009513;28;20230;-84
2023/07/01 00:48:00;;;;;;;13.57;12.27;;;;;;;15.88;92.86;92504.66;5009698;28;20194;-85
2023/07/01 00:50:26;;;;;;;12.43;11.53;;;;;;;16.08;91.58;92511.13;5009963;28;20228;-84
2023/07/01 00:52:52;;;;;;;12.77;11.97;;;;;;;15.90;92.83;92510.38;5010614;28;20171;-82
2023/07/01 00:55:17;;;;;;;12.40;11.57;;;;;;;15.84;93.66;92511.63;5013066;28;20234;-84
2023/07/01 00:57:43;;;;;;;12.33;11.43;;;;;;;15.87;92.65;92511.00;5012845;28;20230;-85
2023/07/01 01:00:10;;;;;;;12.77;11.87;;;;;;;15.83;93.33;92517.97;5013329;28;20227;-84
2023/07/01 01:03:04;;;;;;;12.70;11.63;;;;;;;15.91;94.04;92520.59;5013038;28;20191;-84
2023/07/01 01:05:44;;;;;;;13.87;12.47;;;;;;;15.81;94.48;92517.53;5012434;28;20239;-84
2023/07/01 01:08:28;;;;;;;13.77;12.67;;;;;;;15.79;94.10;92525.75;5002575;28;20188;-83
2023/07/01 01:10:56;;;;;;;13.17;11.83;;;;;;;15.75;94.15;92518.78;5012551;28;20219;-86
2023/07/01 01:13:25;;;;;;;12.10;11.30;;;;;;;15.61;94.79;92518.94;5013032;28;20176;-84
2023/07/01 01:15:51;;;;;;;12.50;11.50;;;;;;;15.64;94.31;92517.56;5012793;28;20226;-80
2023/07/01 01:18:17;;;;;;;13.53;12.53;;;;;;;15.78;94.36;92518.91;5011390;28;20233;-71
2023/07/01 01:20:43;;;;;;;12.93;11.93;;;;;;;15.86;94.70;92514.72;5010171;28;20231;-74
2023/07/01 01:23:13;;;;;;;12.73;11.73;;;;;;;15.83;94.46;92515.34;5011017;28;20190;-74
2023/07/01 01:25:54;;;;;;;12.70;11.70;;;;;;;15.78;94.91;92513.63;5010670;28;20238;-74
2023/07/01 01:28:20;;;;;;;13.23;12.37;;;;;;;15.75;95.83;92510.88;5016365;28;20194;-74
2023/07/01 01:30:45;;;;;;;12.10;11.37;;;;;;;15.73;95.16;92500.66;5014286;28;20272;-74
2023/07/01 01:33:10;;;;;;;11.53;10.73;;;;;;;15.73;95.73;92510.41;5043411;28;20195;-73
2023/07/01 01:35:36;;;;;;;12.70;11.77;;;;;;;15.48;98.52;92504.09;5011169;28;20274;-73
2023/07/01 01:38:07;;;;;;;12.53;11.10;;;;;;;15.70;97.32;92500.50;5010952;28;20195;-74
2023/07/01 01:40:43;;;;;;;13.13;11.97;;;;;;;15.70;96.66;92500.50;5010861;28;20282;-77
2023/07/01 01:43:15;;;;;;;12.83;11.93;;;;;;;15.56;97.57;92486.75;5020082;28;20197;-70
2023/07/01 01:45:43;;;;;;;13.70;12.67;;;;;;;15.65;97.41;92496.19;5008698;28;20355;-73
2023/07/01 01:48:10;;;;;;;12.37;11.47;;;;;;;15.71;97.28;92496.78;5011058;28;20258;-74
2023/07/01 01:50:38;;;;;;;11.93;11.17;;;;;;;15.57;97.47;92496.97;5011218;28;20227;-74
2023/07/01 01:53:05;;;;;;;12.97;11.97;;;;;;;15.57;97.85;92502.22;5012445;28;20282;-73
2023/07/01 01:55:31;;;;;;;12.73;11.73;;;;;;;15.19;99.91;92495.25;5010102;28;20246;-73
2023/07/01 01:57:58;;;;;;;14.50;12.87;;;;;;;15.42;99.33;92488.75;5010111;28;20192;-74
2023/07/01 02:00:24;;;;;;;15.40;13.87;;;;;;;15.47;99.00;92501.78;5010299;28;20229;-73
2023/07/01 02:02:49;;;;;;;12.57;11.67;;;;;;;15.44;99.39;92497.13;5009918;28;20275;-75
2023/07/01 02:05:14;;;;;;;13.20;12.23;;;;;;;15.59;98.44;92494.78;5010352;28;20219;-70
2023/07/01 02:07:40;;;;;;;12.77;11.87;;;;;;;15.54;98.06;92496.81;5011286;28;20199;-70
2023/07/01 02:10:06;;;;;;;11.70;10.60;;;;;;;15.42;98.95;92484.28;5010730;28;20281;-70
2023/07/01 02:12:32;;;;;;;13.43;12.33;;;;;;;15.48;99.29;92498.81;5011575;28;20179;-70
2023/07/01 02:14:57;;;;;;;12.60;11.70;;;;;;;15.41;100.00;92505.66;5014616;28;20289;-70
2023/07/01 02:17:22;;;;;;;11.93;11.03;;;;;;;15.41;100.00;92498.50;5011332;28;20191;-70
2023/07/01 02:19:48;;;;;;;13.43;12.37;;;;;;;15.28;100.00;92488.13;5011556;28;20231;-70
2023/07/01 02:22:14;;;;;;;15.50;11.73;;;;;;;15.33;99.98;92478.19;5005791;28;20187;-70
2023/07/01 02:24:39;;;;;;;13.17;12.23;;;;;;;15.45;99.81;92488.94;5007769;28;20327;-70
2023/07/01 02:27:05;;;;;;;13.27;12.17;;;;;;;15.48;100.00;92488.31;5009310;28;20222;-71
2023/07/01 02:29:30;;;;;;;12.60;11.63;;;;;;;15.51;99.31;92492.16;5013306;28;20234;-71
2023/07/01 02:31:56;;;;;;;12.40;11.53;;;;;;;15.54;99.22;92486.28;5011005;28;20191;-70
2023/07/01 02:34:26;;;;;;;12.50;11.47;;;;;;;15.46;99.60;92484.41;5010602;28;20210;-70
2023/07/01 02:36:52;;;;;;;13.37;12.37;;;;;;;15.51;99.28;92481.63;5010825;28;20180;-71
2023/07/01 02:39:17;;;;;;;12.30;11.03;;;;;;;15.55;99.50;92493.06;5010775;28;20191;-70
2023/07/01 02:41:42;;;;;;;14.23;12.83;;;;;;;15.30;100.00;92491.22;5013822;28;20179;-70
2023/07/01 02:44:08;;;;;;;13.33;12.17;;;;;;;15.37;100.00;92497.56;5025386;28;20194;-70
2023/07/01 02:46:33;;;;;;;13.47;12.60;;;;;;;15.42;100.00;92499.28;5012369;28;20826;-71
2023/07/01 02:48:58;;;;;;;14.23;13.00;;;;;;;15.52;100.00;92504.22;5011769;28;20251;-71
2023/07/01 02:51:24;;;;;;;13.43;12.30;;;;;;;15.40;100.00;92511.97;5011414;28;20246;-71
2023/07/01 02:53:49;;;;;;;13.43;12.33;;;;;;;15.36;100.00;92506.53;5011095;28;20190;-70
2023/07/01 02:56:15;;;;;;;12.97;11.97;;;;;;;15.38;100.00;92511.50;5010461;28;20208;-70
2023/07/01 02:58:40;;;;;;;14.47;13.37;;;;;;;15.42;100.00;92512.44;5011751;28;20203;-71
2023/07/01 03:01:05;;;;;;;13.30;11.93;;;;;;;15.54;100.00;92512.59;5009848;28;20219;-70
2023/07/01 03:03:31;;;;;;;13.47;12.23;;;;;;;15.74;99.88;92515.38;5018014;28;20223;-70
2023/07/01 03:05:56;;;;;;;12.23;11.43;;;;;;;15.88;98.67;92502.81;5010083;28;20222;-70
2023/07/01 03:08:22;;;;;;;13.90;12.50;;;;;;;16.21;97.66;92526.72;5010817;28;20247;-71
2023/07/01 03:10:48;;;;;;;12.50;11.50;;;;;;;16.20;97.01;92519.94;5010136;28;20237;-70
2023/07/01 03:13:13;;;;;;;13.40;12.37;;;;;;;16.13;97.25;92524.88;5010543;28;20167;-70
2023/07/01 03:15:38;;;;;;;13.17;12.30;;;;;;;16.23;97.07;92527.19;5011057;28;20227;-70
2023/07/01 03:18:04;;;;;;;13.93;12.93;;;;;;;16.47;95.61;92524.06;5010514;28;20203;-70
2023/07/01 03:20:29;;;;;;;13.70;12.40;;;;;;;16.58;94.42;92527.88;5010085;28;20243;-70
2023/07/01 03:22:56;;;;;;;12.93;12.03;;;;;;;16.67;94.59;92518.84;5010211;28;20184;-70
2023/07/01 03:25:26;;;;;;;13.47;12.10;;;;;;;16.45;95.02;92518.31;5009652;28;20214;-71
2023/07/01 03:27:51;;;;;;;13.23;12.13;;;;;;;16.54;95.19;92519.06;5010733;28;20183;-71
2023/07/01 03:30:18;;;;;;;14.80;12.67;;;;;;;16.51;95.09;92502.03;5009888;28;20283;-71
2023/07/01 03:32:44;;;;;;;13.77;12.70;;;;;;;16.89;93.77;92526.47;5010388;28;20213;-70
2023/07/01 03:35:11;;;;;;;13.13;12.23;;;;;;;17.04;93.12;92518.00;5009959;28;20215;-70
2023/07/01 03:37:38;;;;;;;14.43;12.90;;;;;;;17.16;92.88;92522.59;5010085;28;20251;-71
2023/07/01 03:40:04;;;;;;;14.10;12.60;;;;;;;17.29;92.27;92518.97;5009944;28;20219;-70
2023/07/01 03:42:30;;;;;;;13.40;12.40;;;;;;;17.34;91.91;92521.38;5020198;28;20202;-70
2023/07/01 03:44:56;;;;;;;12.47;11.30;;;;;;;17.35;92.12;92502.59;5011604;28;20220;-71
2023/07/01 03:47:22;;;;;;;14.03;12.63;;;;;;;17.25;92.67;92502.19;5041933;28;20970;-70
2023/07/01 03:49:48;;;;;;;13.77;12.33;;;;;;;17.48;92.11;92516.66;5009148;28;20237;-70
2023/07/01 03:52:14;;;;;;;14.73;13.63;;;;;;;17.79;88.55;92526.81;5010026;28;20203;-71
2023/07/01 03:54:40;;;;;;;14.07;12.90;;;;;;;17.69;87.93;92514.78;5009588;28;20255;-71
2023/07/01 03:57:05;;;;;;;15.23;14.03;;;;;;;17.37;89.11;92529.44;5010169;28;20214;-71
2023/07/01 03:59:31;;;;;;;15.63;14.23;;;;;;;17.67;88.15;92532.03;5020844;28;20245;-71
2023/07/01 04:01:57;;;;;;;17.47;14.50;;;;;;;17.98;86.59;92529.78;5009186;28;20215;-71
2023/07/01 04:04:22;;;;;;;15.53;13.97;;;;;;;18.00;86.66;92532.84;5009243;28;20227;-72
2023/07/01 04:06:47;;;;;;;15.13;13.67;;;;;;;18.02;85.53;92523.50;5009795;28;20246;-71
2023/07/01 04:09:13;;;;;;;16.70;15.13;;;;;;;17.98;85.70;92525.25;5009228;28;20207;-70
2023/07/01 04:11:39;;;;;;;19.03;14.43;;;;;;;17.74;87.75;92519.09;5009926;28;20195;-70
2023/07/01 04:14:05;;;;;;;17.10;15.60;;;;;;;18.15;86.90;92534.88;5011349;28;20267;-71
2023/07/01 04:16:30;;;;;;;17.60;15.70;;;;;;;18.20;85.83;92527.50;5009368;28;20239;-71
2023/07/01 04:18:56;;;;;;;19.17;16.30;;;;;;;18.21;85.51;92517.72;5010116;28;20203;-72
2023/07/01 04:21:23;;;;;;;16.67;15.20;;;;;;;17.92;87.16;92526.53;5009876;28;20225;-71
2023/07/01 04:23:48;;;;;;;17.13;15.57;;;;;;;17.99;87.35;92531.31;5008960;28;20279;-71
2023/07/01 04:26:13;;;;;;;15.60;14.30;;;;;;;18.00;86.39;92533.63;5009431;28;20224;-71
2023/07/01 04:28:39;;;;;;;17.87;16.10;;;;;;;18.38;85.63;92528.13;5012310;28;20188;-71
2023/07/01 04:31:04;;;;;;;15.07;13.77;;;;;;;18.47;84.74;92523.53;5014434;28;20220;-71
2023/07/01 04:33:30;;;;;;;17.97;14.43;;;;;;;18.53;85.76;92535.44;5015594;28;20186;-71
2023/07/01 04:35:55;;;;;;;15.03;13.73;;;;;;;19.22;83.02;92538.78;5012997;28;20232;-70
2023/07/01 04:38:20;;;;;;;16.93;14.63;;;;;;;19.83;78.79;92537.53;5012986;28;20265;-70
2023/07/01 04:40:46;;;;;;;15.23;13.93;;;;;;;20.24;75.04;92529.25;5013024;28;20236;-71
2023/07/01 04:43:11;;;;;;;16.23;14.70;;;;;;;19.92;77.40;92532.13;5050008;28;20196;-70
2023/07/01 04:45:37;;;;;;;15.60;14.20;;;;;;;20.19;77.30;92532.13;5013074;28;20229;-71
2023/07/01 04:48:03;;;;;;;16.10;14.70;;;;;;;20.68;73.80;92530.72;5013477;28;20199;-71
2023/07/01 04:50:28;;;;;;;16.13;14.53;;;;;;;20.30;75.98;92525.22;5012834;28;20235;-71
2023/07/01 04:52:54;;;;;;;15.77;14.13;;;;;;;20.03;76.42;92538.47;5012968;28;20197;-72
2023/07/01 04:55:20;;;;;;;15.20;13.30;;;;;;;19.46;79.34;92525.50;5044783;28;20221;-71
2023/07/01 04:57:45;;;;;;;15.93;14.40;;;;;;;19.51;80.90;92538.53;5013032;28;20208;-70
2023/07/01 05:00:11;;;;;;;16.57;14.97;;;;;;;19.31;83.65;92543.97;5016233;28;20232;-70
2023/07/01 05:02:37;;;;;;;16.60;14.57;;;;;;;19.04;85.88;92540.88;5015802;28;20196;-71
2023/07/01 05:05:03;;;;;;;19.90;14.13;;;;;;;19.64;82.15;92542.69;5012598;28;20220;-71
2023/07/01 05:07:28;;;;;;;16.07;14.70;;;;;;;19.76;80.34;92544.53;5044826;28;20289;-71
2023/07/01 05:09:54;;;;;;;16.60;15.07;;;;;;;19.99;80.95;92556.94;5011714;28;20234;-71
2023/07/01 05:12:19;;;;;;;16.17;14.57;;;;;;;20.25;80.57;92557.28;5012649;28;20262;-70
2023/07/01 05:14:44;;;;;;;19.03;15.97;;;;;;;21.50;74.70;92567.97;5013653;28;20241;-70
2023/07/01 05:17:10;;;;;;;17.80;16.10;;;;;;;21.04;75.63;92560.81;5012582;28;20174;-71
2023/07/01 05:19:35;;;;;;;15.93;14.32;;;;;;;21.61;73.81;92564.44;5034809;28;20231;-68
2023/07/01 05:22:01;;;;;;;15.75;14.45;;;;;;;21.72;71.44;92567.31;5043455;28;20199;-69
2023/07/01 05:24:26;;;;;;;16.40;14.13;;;;;;;21.29;74.18;92568.25;5011948;28;20239;-69
2023/07/01 05:26:52;;;;;;;17.88;15.48;;;;;;;21.10;75.49;92564.75;5014099;28;20249;-71
2023/07/01 05:29:20;;;;;;;16.27;14.77;;;;;;;20.91;75.21;92552.16;5008621;28;20206;-70
2023/07/01 05:31:48;;;;;;;16.38;14.88;;;;;;;20.69;76.82;92566.00;5011417;28;20195;-71
2023/07/01 05:34:14;;;;;;;17.48;15.77;;;;;;;21.44;74.00;92566.69;5010784;28;20183;-71
2023/07/01 05:36:39;;;;;;;15.85;14.35;;;;;;;23.49;63.89;92565.69;5011694;28;20193;-70
2023/07/01 05:39:05;;;;;;;15.80;14.43;;;;;;;23.96;62.69;92569.75;5010039;28;20227;-71
2023/07/01 05:41:31;;;;;;;16.15;14.48;;;;;;;27.59;50.54;92569.16;5010813;28;20224;-71
2023/07/01 05:43:56;;;;;;;14.02;12.68;;;;;;;31.28;39.56;92580.72;5011336;28;20194;-71
2023/07/01 05:46:22;;;;;;;15.50;12.98;;;;;;;33.69;33.92;92599.00;5010322;28;20266;-72
2023/07/01 05:48:47;;;;;;;12.80;11.80;;;;;;;34.82;31.97;92605.03;5010564;28;20176;-71
2023/07/01 05:51:12;;;;;;;14.10;13.00;;;;;;;34.85;31.83;92606.13;5012234;28;20239;-71
2023/07/01 05:53:38;;;;;;;12.75;11.48;;;;;;;36.38;28.60;92605.34;5015634;28;20206;-72
2023/07/01 05:56:03;;;;;;;12.30;11.20;;;;;;;36.36;28.12;92593.38;5015512;28;20294;-72
2023/07/01 05:58:29;;;;;;;14.52;11.65;;;;;;;35.64;29.16;92610.41;5042554;28;20203;-72
2023/07/01 06:00:54;;;;;;;13.43;12.02;;;;;;;36.59;28.42;92603.84;5010355;28;20250;-72
2023/07/01 06:03:20;;;;;;;13.50;12.15;;;;;;;36.98;26.96;92611.44;5009744;28;20250;-72
2023/07/01 06:05:45;;;;;;;12.38;11.32;;;;;;;37.47;26.08;92609.59;5010759;28;20235;-72
2023/07/01 06:08:10;;;;;;;12.85;11.50;;;;;;;37.17;27.01;92612.28;5014238;28;20198;-71
2023/07/01 06:10:37;;;;;;;12.27;11.27;;;;;;;37.01;27.12;92621.44;5010234;28;20227;-72
2023/07/01 06:13:02;;;;;;;13.38;11.95;;;;;;;36.18;27.39;92614.94;5009608;28;20206;-72
2023/07/01 06:15:27;;;;;;;12.90;11.77;;;;;;;35.95;28.13;92618.78;5006289;28;20211;-72
2023/07/01 06:17:53;;;;;;;11.73;10.70;;;;;;;37.07;26.90;92614.19;5003249;28;20226;-72
2023/07/01 06:20:18;;;;;;;12.82;11.70;;;;;;;35.36;29.07;92614.00;5009586;28;20221;-72
2023/07/01 06:22:44;;;;;;;12.38;11.38;;;;;;;35.86;28.87;92620.66;5006780;28;20190;-72
2023/07/01 06:25:10;;;;;;;11.95;10.75;;;;;;;36.80;27.33;92606.59;5009641;28;20328;-70
2023/07/01 06:27:36;;;;;;;11.77;10.55;;;;;;;37.35;26.46;92617.88;5009740;28;20279;-72
2023/07/01 06:30:03;;;;;;;12.70;11.38;;;;;;;35.40;28.68;92613.88;5010038;28;20242;-71
2023/07/01 06:32:29;;;;;;;13.80;12.50;;;;;;;35.92;28.25;92616.19;5004553;28;20187;-72
2023/07/01 06:34:54;;;;;;;11.77;10.88;;;;;;;36.65;27.48;92616.47;5014197;28;20270;-71
2023/07/01 06:37:19;;;;;;;12.20;11.10;;;;;;;36.69;26.79;92616.31;5010960;28;20733;-72
2023/07/01 06:39:45;;;;;;;11.50;10.40;;;;;;;37.91;25.55;92618.44;5008849;28;20246;-81
2023/07/01 06:42:12;;;;;;;11.05;10.18;;;;;;;37.16;25.02;92611.53;5011891;28;20191;-73
2023/07/01 06:44:37;;;;;;;12.10;10.90;;;;;;;34.75;27.78;92597.09;5008540;28;20235;-70
2023/07/01 06:47:03;;;;;;;10.65;9.60;;;;;;;34.04;29.24;92603.56;5010182;28;20276;-72
2023/07/01 06:49:28;;;;;;;11.13;10.32;;;;;;;35.89;27.58;92612.38;5013761;28;20239;-71
2023/07/01 06:51:54;;;;;;;11.82;10.77;;;;;;;36.71;25.97;92609.25;5013086;28;20180;-70
2023/07/01 06:54:19;;;;;;;12.15;11.02;;;;;;;34.43;29.43;92610.00;5009452;28;20180;-70
2023/07/01 06:56:45;;;;;;;11.98;10.98;;;;;;;30.76;35.64;92598.34;5009768;28;20188;-70
2023/07/01 06:59:10;;;;;;;12.23;10.88;;;;;;;27.56;43.33;92577.97;5009068;28;20199;-70
2023/07/01 07:01:36;;;;;;;12.70;11.60;;;;;;;26.11;46.90;92565.31;5009737;28;20222;-70
2023/07/01 07:04:01;;;;;;;17.45;11.98;;;;;;;24.76;53.09;92556.63;5009241;28;20234;-71
2023/07/01 07:06:26;;;;;;;14.45;13.02;;;;;;;23.59;59.26;92554.41;5008764;28;20231;-71
2023/07/01 07:08:52;;;;;;;13.55;12.25;;;;;;;24.77;53.87;92558.16;5009021;28;20566;-71
2023/07/01 07:11:17;;;;;;;13.57;12.20;;;;;;;24.77;53.25;92553.59;5008979;28;20231;-72
2023/07/01 07:13:43;;;;;;;13.93;12.65;;;;;;;23.86;57.68;92549.06;5008570;28;20969;-72
2023/07/01 07:16:08;;;;;;;13.30;11.95;;;;;;;24.37;53.46;92550.09;5009370;28;20246;-71
2023/07/01 07:18:33;;;;;;;13.25;11.93;;;;;;;24.53;54.97;92548.72;5011767;28;20222;-71
2023/07/01 07:20:59;;;;;;;15.23;13.85;;;;;;;24.73;54.34;92534.09;5012194;28;20250;-71
2023/07/01 07:23:24;;;;;;;16.63;14.70;;;;;;;23.34;61.82;92539.97;5009409;28;20197;-71
2023/07/01 07:25:49;;;;;;;14.18;12.85;;;;;;;24.08;59.19;92538.31;5009082;28;20222;-71
2023/07/01 07:28:16;;;;;;;15.70;14.15;;;;;;;24.19;59.78;92533.13;5008700;28;20254;-72
2023/07/01 07:30:42;;;;;;;13.63;12.52;;;;;;;24.40;57.46;92550.13;5009449;28;20261;-71
2023/07/01 07:33:07;;;;;;;15.40;13.43;;;;;;;24.60;56.93;92532.81;5004732;28;20190;-71
2023/07/01 07:35:32;;;;;;;15.43;13.77;;;;;;;24.44;54.75;92544.81;5008837;28;20743;-71
2023/07/01 07:37:58;;;;;;;14.52;13.43;;;;;;;24.07;56.84;92536.00;5009213;28;20193;-71
2023/07/01 07:40:23;;;;;;;14.60;13.18;;;;;;;24.20;57.28;92539.97;5008504;28;20224;-72
2023/07/01 07:42:53;;;;;;;14.00;12.68;;;;;;;24.23;59.35;92544.59;5014363;28;20285;-71
2023/07/01 07:45:20;;;;;;;14.23;12.73;;;;;;;23.87;58.85;92543.34;5008344;28;20261;-71
2023/07/01 07:47:46;;;;;;;14.50;13.20;;;;;;;23.94;57.83;92532.03;5008708;28;20222;-72
2023/07/01 07:50:12;;;;;;;14.65;13.13;;;;;;;23.77;56.97;92528.75;5009084;28;20254;-72
2023/07/01 07:52:37;;;;;;;14.82;13.52;;;;;;;24.24;59.26;92528.22;5008508;28;20216;-72
2023/07/01 07:55:03;;;;;;;14.32;12.93;;;;;;;24.81;55.01;92537.63;5008655;28;20432;-72
2023/07/01 07:57:28;;;;;;;16.77;12.65;;;;;;;24.60;56.82;92521.34;5022907;28;20197;-73
2023/07/01 07:59:53;;;;;;;14.48;13.13;;;;;;;24.67;55.17;92519.53;5008412;28;20222;-71
2023/07/01 08:02:19;;;;;;;13.43;12.30;;;;;;;24.32;59.35;92527.16;5008635;28;20195;-72
2023/07/01 08:04:44;;;;;;;13.02;11.75;;;;;;;24.19;58.56;92525.13;5012126;28;20267;-71
2023/07/01 08:07:10;;;;;;;14.82;12.60;;;;;;;24.69;55.64;92519.94;5012925;28;20233;-71
2023/07/01 08:09:37;;;;;;;12.82;11.65;;;;;;;24.62;56.98;92519.84;5012433;28;20240;-72
2023/07/01 08:12:03;;;;;;;13.73;12.38;;;;;;;24.47;55.79;92518.16;5011796;28;20241;-71
2023/07/01 08:14:29;;;;;;;13.65;12.55;;;;;;;24.67;55.23;92516.13;5014889;28;20232;-71
2023/07/01 08:16:56;;;;;;;12.75;11.85;;;;;;;24.76;50.88;92520.00;5015563;28;20179;-71
2023/07/01 08:19:21;;;;;;;11.25;10.45;;;;;;;24.82;51.45;92523.13;5013839;28;20189;-72
2023/07/01 08:21:47;;;;;;;12.77;11.68;;;;;;;24.71;52.17;92512.34;5012998;28;20211;-71
2023/07/01 08:24:12;;;;;;;11.90;11.05;;;;;;;24.66;52.48;92515.34;5012137;28;20230;-72
2023/07/01 08:26:38;;;;;;;12.85;11.85;;;;;;;24.44;53.58;92510.13;5011975;28;20210;-71
2023/07/01 08:29:08;;;;;;;13.23;12.10;;;;;;;24.83;52.90;92519.31;5013976;28;20256;-70
2023/07/01 08:31:33;;;;;;;14.50;13.00;;;;;;;24.75;53.46;92512.34;5011820;28;20215;-79
2023/07/01 08:33:59;;;;;;;14.15;12.80;;;;;;;24.96;52.06;92513.34;5012425;28;20186;-72
2023/07/01 08:36:25;;;;;;;12.55;11.43;;;;;;;25.12;52.98;92515.75;5013602;28;20302;-73
2023/07/01 08:38:51;;;;;;;12.98;11.77;;;;;;;24.76;54.82;92508.56;5011333;28;20195;-72
2023/07/01 08:41:18;;;;;;;13.43;11.98;;;;;;;24.84;57.90;92515.50;5011730;28;20234;-72
2023/07/01 08:43:47;;;;;;;12.52;11.05;;;;;;;24.97;56.28;92512.19;5012147;28;20206;-72
2023/07/01 08:46:15;;;;;;;13.48;12.38;;;;;;;25.39;54.18;92514.44;5011692;28;20229;-72
2023/07/01 08:48:44;;;;;;;13.50;12.27;;;;;;;24.98;53.58;92510.28;5013041;28;20206;-72
2023/07/01 08:51:37;;;;;;;13.35;12.15;;;;;;;24.89;54.85;92512.47;5011746;28;20223;-72
2023/07/01 08:54:04;;;;;;;12.90;11.93;;;;;;;25.00;57.07;92508.00;5005962;28;20250;-72
2023/07/01 08:56:30;;;;;;;12.98;11.98;;;;;;;25.17;52.96;92502.03;5019095;28;20498;-70
2023/07/01 08:58:55;;;;;;;12.13;11.23;;;;;;;25.54;51.36;92494.69;5017174;28;20203;-70
2023/07/01 09:01:21;;;;;;;12.43;11.25;;;;;;;25.68;53.16;92508.13;5012389;28;20229;-69
2023/07/01 09:03:47;;;;;;;12.27;11.15;;;;;;;25.59;48.61;92505.00;5011105;28;20218;-70
2023/07/01 09:06:13;;;;;;;11.50;10.55;;;;;;;25.68;49.93;92505.47;5011773;28;20249;-70
2023/07/01 09:08:39;;;;;;;11.43;10.43;;;;;;;24.97;50.88;92493.47;5017679;28;20186;-70
2023/07/01 09:11:15;;;;;;;12.27;11.07;;;;;;;25.74;53.41;92497.84;5011410;28;20727;-70
2023/07/01 09:13:41;;;;;;;12.35;11.25;;;;;;;25.71;51.91;92494.00;5010586;28;20233;-69
2023/07/01 09:16:08;;;;;;;12.27;10.98;;;;;;;25.24;50.05;92491.41;5011290;28;20238;-70
2023/07/01 09:18:34;;;;;;;12.48;11.52;;;;;;;25.07;52.48;92476.00;5012481;28;20221;-70
2023/07/01 09:21:00;;;;;;;11.23;10.43;;;;;;;25.28;51.40;92492.19;5012689;28;20230;-69
2023/07/01 09:23:34;;;;;;;12.80;11.70;;;;;;;25.38;53.83;92486.19;5014349;28;20194;-76
2023/07/01 09:26:13;;;;;;;12.77;11.77;;;;;;;25.69;54.36;92485.59;5001922;28;20305;-78
2023/07/01 09:28:39;;;;;;;12.23;11.23;;;;;;;25.59;50.73;92474.84;5012313;28;20182;-77
2023/07/01 09:31:10;;;;;;;12.35;11.15;;;;;;;25.39;53.05;92471.66;5011921;28;20258;-76
2023/07/01 09:33:37;;;;;;;14.50;13.00;;;;;;;25.26;54.21;92470.41;5014953;28;20194;-75
2023/07/01 09:36:04;;;;;;;12.43;11.35;;;;;;;25.60;52.96;92473.69;5012436;28;20233;-76
2023/07/01 09:38:30;;;;;;;14.68;12.80;;;;;;;25.52;52.66;92462.19;5012975;28;20191;-77
2023/07/01 09:41:12;;;;;;;13.82;12.52;;;;;;;25.45;56.69;92466.75;5011956;28;20223;-77
2023/07/01 09:43:37;;;;;;;14.15;12.77;;;;;;;25.97;53.36;92453.63;5023139;28;20213;-76
2023/07/01 09:46:02;;;;;;;14.75;13.43;;;;;;;25.83;51.26;92455.47;5010506;28;20221;-77
2023/07/01 09:48:28;;;;;;;13.43;12.07;;;;;;;25.77;51.37;92454.28;5011342;28;20272;-76
2023/07/01 09:51:00;;;;;;;13.55;11.98;;;;;;;25.16;55.60;92447.81;5011243;28;20231;-76
2023/07/01 09:53:33;;;;;;;13.98;12.77;;;;;;;25.43;54.42;92445.72;5011247;28;20183;-76
2023/07/01 09:56:03;;;;;;;13.48;12.38;;;;;;;25.54;54.60;92430.50;5010552;28;20234;-76
2023/07/01 09:58:33;;;;;;;13.13;12.02;;;;;;;25.68;54.25;92446.63;5012987;28;20183;-76
2023/07/01 10:00:59;;;;;;;13.00;12.00;;;;;;;25.27;54.82;92437.19;5015508;28;20272;-77
2023/07/01 10:03:28;;;;;;;12.85;11.73;;;;;;;25.19;54.55;92441.75;5011884;28;20257;-76
2023/07/01 10:05:54;;;;;;;12.63;11.63;;;;;;;25.60;51.82;92426.34;5011291;28;20246;-75
2023/07/01 10:08:20;;;;;;;12.75;11.75;;;;;;;25.76;54.49;92436.72;5016494;28;20206;-76
2023/07/01 10:11:04;;;;;;;15.48;12.80;;;;;;;25.83;53.49;92426.03;5011016;28;20745;-75
2023/07/01 10:13:32;;;;;;;13.40;12.20;;;;;;;25.30;53.02;92428.44;5011801;28;20195;-75
2023/07/01 10:16:02;;;;;;;12.98;12.02;;;;;;;25.94;52.83;92430.28;5019483;28;20261;-76
2023/07/01 10:18:30;;;;;;;13.18;12.05;;;;;;;25.74;52.62;92425.63;5011432;28;20175;-75
2023/07/01 10:21:24;;;;;;;13.07;12.00;;;;;;;26.19;53.11;92419.69;5011542;28;20279;-75
2023/07/01 10:23:57;;;;;;;11.68;10.88;;;;;;;25.44;52.79;92415.19;5010397;28;20215;-75
2023/07/01 10:26:31;;;;;;;14.23;11.52;;;;;;;25.54;54.37;92419.81;5010260;28;20294;-75
2023/07/01 10:28:57;;;;;;;12.80;11.90;;;;;;;25.21;55.69;92410.03;5011443;28;20258;-76
2023/07/01 10:31:23;;;;;;;12.68;11.68;;;;;;;25.73;55.04;92408.81;5011020;28;20211;-75
2023/07/01 10:33:50;;;;;;;13.02;11.90;;;;;;;25.55;54.01;92402.63;5013741;28;20233;-75
2023/07/01 10:36:19;;;;;;;13.38;12.27;;;;;;;25.56;54.03;92398.06;5010996;28;20238;-75
2023/07/01 10:38:44;;;;;;;13.13;12.02;;;;;;;25.79;54.26;92404.63;5011228;28;20202;-76
2023/07/01 10:41:10;;;;;;;12.82;11.70;;;;;;;25.77;56.63;92390.09;5010787;28;20242;-75
2023/07/01 10:43:37;;;;;;;13.55;12.13;;;;;;;26.00;54.85;92396.69;5020675;28;20279;-76
2023/07/01 10:46:11;;;;;;;12.07;11.18;;;;;;;26.34;51.90;92397.91;5016697;28;20781;-76
2023/07/01 10:49:03;;;;;;;12.20;11.30;;;;;;;26.33;51.91;92398.28;5021600;28;20199;-75
2023/07/01 10:51:31;;;;;;;13.18;11.98;;;;;;;26.51;50.12;92399.84;5009848;28;20230;-76
2023/07/01 10:54:04;;;;;;;11.02;10.02;;;;;;;25.90;53.27;92393.97;5011446;28;20207;-76
2023/07/01 10:56:31;;;;;;;12.35;11.27;;;;;;;25.40;54.26;92352.91;5010511;28;20258;-76
2023/07/01 10:59:23;;;;;;;12.90;11.80;;;;;;;25.90;54.34;92397.38;5016991;28;20241;-76
2023/07/01 11:01:56;;;;;;;12.80;11.75;;;;;;;26.30;50.67;92383.78;5000598;28;20218;-75
2023/07/01 11:04:23;;;;;;;12.75;11.65;;;;;;;25.90;53.60;92386.69;5010038;28;20226;-76
2023/07/01 11:06:55;;;;;;;14.30;12.18;;;;;;;26.08;52.30;92390.22;5010772;28;20278;-75
2023/07/01 11:09:29;;;;;;;13.48;12.35;;;;;;;26.29;50.60;92387.56;5010117;28;20175;-76
2023/07/01 11:11:56;;;;;;;12.40;11.40;;;;;;;26.52;51.86;92396.00;5011209;28;20190;-76
2023/07/01 11:14:29;;;;;;;13.55;12.45;;;;;;;26.58;53.44;92389.13;5010119;28;20182;-76
2023/07/01 11:17:07;;;;;;;12.77;11.77;;;;;;;26.41;50.48;92384.53;5012797;28;20195;-75